Time;durP1;ratioP1;P1;durP2;ratioP2;P2;SDS_P1;SDS_P2;PMS_P1;PMS_P2;Temp;Humidity;BMP_temperature;BMP_pressure;BME280_temperature;BME280_humidity;BME280_pressure;Samples;Min_cycle;Max_cycle;Signal;HPM_P1;HPM_P2
2024/02/18 00:01:26;;;;;;;0.80;0.80;;;9.90;99.90;;;;;;10407469;28;20738;-78
2024/02/18 00:06:29;;;;;;;0.60;0.60;;;9.90;99.90;;;;;;10394208;28;20761;-78
2024/02/18 00:11:33;;;;;;;0.70;0.70;;;9.90;99.90;;;;;;10401339;28;20218;-80
2024/02/18 00:16:35;;;;;;;0.70;0.70;;;9.90;99.90;;;;;;10397502;28;20229;-78
2024/02/18 00:21:38;;;;;;;0.77;0.77;;;9.90;99.90;;;;;;10408047;28;20198;-80
2024/02/18 00:26:41;;;;;;;0.77;0.77;;;9.90;99.90;;;;;;10409190;28;20225;-78
2024/02/18 00:31:44;;;;;;;0.70;0.70;;;10.00;99.90;;;;;;10408147;28;20213;-78
2024/02/18 00:36:46;;;;;;;0.60;0.60;;;10.10;99.90;;;;;;10406967;28;20275;-77
2024/02/18 00:41:50;;;;;;;0.80;0.80;;;10.10;99.90;;;;;;10406072;28;20220;-78
2024/02/18 00:46:52;;;;;;;0.60;0.60;;;10.20;99.90;;;;;;10405293;28;20233;-78
2024/02/18 00:51:55;;;;;;;0.60;0.60;;;10.30;99.90;;;;;;10405140;28;20270;-78
2024/02/18 00:56:58;;;;;;;0.60;0.60;;;10.30;99.90;;;;;;10409486;28;20225;-79
2024/02/18 01:02:01;;;;;;;0.70;0.70;;;10.30;99.90;;;;;;10411486;28;20193;-77
2024/02/18 01:07:03;;;;;;;0.57;0.57;;;10.30;99.90;;;;;;10404683;28;20225;-77
2024/02/18 01:12:07;;;;;;;0.63;0.63;;;10.30;99.90;;;;;;10410133;28;20264;-78
2024/02/18 01:17:10;;;;;;;0.60;0.60;;;10.40;99.90;;;;;;10406281;28;20590;-76
2024/02/18 01:22:12;;;;;;;0.60;0.60;;;10.30;99.90;;;;;;10391632;28;20218;-79
2024/02/18 01:27:16;;;;;;;0.60;0.60;;;10.30;99.90;;;;;;10403756;28;20218;-79
2024/02/18 01:32:18;;;;;;;0.60;0.60;;;10.30;99.90;;;;;;10413778;28;20914;-79
2024/02/18 01:37:21;;;;;;;0.70;0.70;;;10.30;99.90;;;;;;10412574;28;20221;-77
2024/02/18 01:42:25;;;;;;;0.60;0.60;;;10.30;99.90;;;;;;10424331;28;20218;-77
2024/02/18 01:47:27;;;;;;;0.70;0.70;;;10.30;99.90;;;;;;10418296;28;20217;-76
2024/02/18 01:52:29;;;;;;;0.70;0.70;;;10.30;99.90;;;;;;10419836;28;20539;-77
2024/02/18 01:57:34;;;;;;;0.70;0.70;;;10.30;99.90;;;;;;10416681;28;20634;-80
2024/02/18 02:02:36;;;;;;;0.60;0.60;;;10.30;99.90;;;;;;10414924;28;20636;-81
2024/02/18 02:07:39;;;;;;;0.53;0.53;;;10.30;99.90;;;;;;10431074;28;20217;-81
2024/02/18 02:12:43;;;;;;;0.70;0.70;;;10.30;99.90;;;;;;10420194;28;20221;-78
2024/02/18 02:17:45;;;;;;;0.60;0.60;;;10.30;99.90;;;;;;10417472;28;20243;-78
2024/02/18 02:22:48;;;;;;;0.60;0.60;;;10.20;99.90;;;;;;10415332;28;20205;-78
2024/02/18 02:27:59;;;;;;;0.60;0.60;;;10.20;99.90;;;;;;10405455;28;20621;-78
2024/02/18 02:33:03;;;;;;;0.60;0.60;;;10.20;99.90;;;;;;10410001;28;20217;-81
2024/02/18 02:38:06;;;;;;;0.60;0.60;;;10.10;99.90;;;;;;10400057;28;20715;-79
2024/02/18 02:43:10;;;;;;;0.50;0.50;;;10.10;99.90;;;;;;10412219;28;20193;-76
2024/02/18 02:48:14;;;;;;;0.60;0.60;;;10.00;99.90;;;;;;10398517;28;20214;-78
2024/02/18 02:53:16;;;;;;;0.60;0.60;;;10.00;99.90;;;;;;10391466;28;20294;-78
2024/02/18 02:58:18;;;;;;;0.70;0.70;;;10.00;99.90;;;;;;10395380;28;20210;-77
2024/02/18 03:03:22;;;;;;;0.60;0.60;;;9.90;99.90;;;;;;10395256;28;20598;-78
2024/02/18 03:08:24;;;;;;;0.60;0.60;;;9.80;99.90;;;;;;10395760;28;20706;-78
2024/02/18 03:13:27;;;;;;;0.60;0.60;;;9.80;99.90;;;;;;10395036;28;20227;-76
2024/02/18 03:18:31;;;;;;;0.60;0.60;;;9.70;99.90;;;;;;10395460;28;20788;-82
2024/02/18 03:23:34;;;;;;;0.60;0.60;;;9.60;99.90;;;;;;10393283;28;20652;-80
2024/02/18 03:28:36;;;;;;;0.60;0.60;;;9.50;99.90;;;;;;10389335;28;20207;-78
2024/02/18 03:33:40;;;;;;;0.73;0.73;;;9.40;99.90;;;;;;10390241;28;20222;-77
2024/02/18 03:38:42;;;;;;;0.80;0.80;;;9.30;99.90;;;;;;10391122;28;20618;-78
2024/02/18 03:43:44;;;;;;;0.60;0.60;;;9.30;99.90;;;;;;10392625;28;20211;-77
2024/02/18 03:48:48;;;;;;;0.60;0.60;;;9.20;99.90;;;;;;10404331;28;20206;-78
2024/02/18 03:53:50;;;;;;;0.70;0.70;;;9.20;99.90;;;;;;10400096;28;20236;-76
2024/02/18 03:58:53;;;;;;;0.67;0.67;;;9.10;99.90;;;;;;10415778;28;20761;-76
2024/02/18 04:03:56;;;;;;;1.10;1.10;;;9.10;99.90;;;;;;10409839;28;20233;-78
2024/02/18 04:08:59;;;;;;;1.03;1.03;;;9.10;99.90;;;;;;10414193;28;20198;-79
2024/02/18 04:14:01;;;;;;;0.90;0.90;;;9.20;99.90;;;;;;10413950;28;20687;-78
2024/02/18 04:19:06;;;;;;;1.10;1.10;;;9.10;99.90;;;;;;10412237;28;20206;-78
2024/02/18 04:24:08;;;;;;;0.80;0.80;;;9.10;99.90;;;;;;10403014;28;20237;-78
2024/02/18 04:29:10;;;;;;;0.87;0.87;;;9.10;99.90;;;;;;10411089;28;20540;-80
2024/02/18 04:34:14;;;;;;;0.90;0.90;;;9.10;99.90;;;;;;10409842;28;20226;-78
2024/02/18 04:39:17;;;;;;;1.10;1.10;;;9.10;99.90;;;;;;10409276;28;20224;-80
2024/02/18 04:44:19;;;;;;;1.00;1.00;;;9.00;99.90;;;;;;10408897;28;20233;-78
2024/02/18 04:49:23;;;;;;;1.00;1.00;;;9.00;99.90;;;;;;10407860;28;20228;-77
2024/02/18 04:54:25;;;;;;;0.80;0.80;;;8.90;99.90;;;;;;10406905;28;20222;-78
2024/02/18 04:59:28;;;;;;;1.00;1.00;;;8.90;99.90;;;;;;10402226;28;20202;-78
2024/02/18 05:04:32;;;;;;;0.80;0.80;;;8.80;99.90;;;;;;10416548;28;20284;-80
2024/02/18 05:09:35;;;;;;;1.20;1.20;;;8.80;99.90;;;;;;10421075;28;20646;-78
2024/02/18 05:14:38;;;;;;;0.80;0.80;;;8.70;99.90;;;;;;10401689;28;20335;-80
2024/02/18 05:19:42;;;;;;;1.00;1.00;;;8.70;99.90;;;;;;10418697;28;20256;-77
2024/02/18 05:24:45;;;;;;;1.00;1.00;;;8.60;99.90;;;;;;10449866;22;20229;-78
2024/02/18 05:29:48;;;;;;;1.00;1.00;;;8.60;99.90;;;;;;10454891;28;20773;-76
2024/02/18 05:34:51;;;;;;;1.20;1.20;;;8.50;99.90;;;;;;10447688;28;20593;-76
2024/02/18 05:39:54;;;;;;;0.97;0.97;;;8.40;99.90;;;;;;10413354;28;20272;-76
2024/02/18 05:44:56;;;;;;;0.90;0.90;;;8.30;99.90;;;;;;10414517;28;20222;-77
2024/02/18 05:50:00;;;;;;;1.00;1.00;;;8.30;99.90;;;;;;10414646;28;20206;-76
2024/02/18 05:55:02;;;;;;;0.93;0.93;;;8.30;99.90;;;;;;10412898;28;20264;-76
2024/02/18 06:00:05;;;;;;;1.00;1.00;;;8.20;99.90;;;;;;10414105;28;20197;-76
2024/02/18 06:05:11;;;;;;;1.10;1.10;;;8.20;99.90;;;;;;10413143;28;20252;-76
2024/02/18 06:10:14;;;;;;;1.00;1.00;;;8.10;99.90;;;;;;10413305;28;20703;-76
2024/02/18 06:15:16;;;;;;;1.27;1.27;;;8.10;99.90;;;;;;10411606;28;20213;-76
2024/02/18 06:20:20;;;;;;;1.10;1.10;;;8.10;99.90;;;;;;10411980;28;20190;-76
2024/02/18 06:25:22;;;;;;;1.00;1.00;;;8.10;99.90;;;;;;10412568;28;20633;-77
2024/02/18 06:30:24;;;;;;;1.03;1.03;;;8.10;99.90;;;;;;10411567;28;20221;-77
2024/02/18 06:35:28;;;;;;;1.10;1.10;;;8.10;99.90;;;;;;10412236;28;20562;-77
2024/02/18 06:40:31;;;;;;;1.13;1.13;;;8.10;99.90;;;;;;10412517;28;20248;-76
2024/02/18 06:45:33;;;;;;;1.13;1.13;;;8.10;99.90;;;;;;10406795;28;20275;-76
2024/02/18 06:50:36;;;;;;;1.00;1.00;;;8.20;99.90;;;;;;10411643;28;20695;-77
2024/02/18 06:55:39;;;;;;;1.10;1.10;;;8.20;99.90;;;;;;10418593;28;20570;-77
2024/02/18 07:00:41;;;;;;;1.10;1.10;;;8.20;99.90;;;;;;10411606;28;20201;-76
2024/02/18 07:05:45;;;;;;;1.30;1.30;;;8.30;99.90;;;;;;10409544;28;20225;-76
2024/02/18 07:10:47;;;;;;;1.30;1.30;;;8.40;99.90;;;;;;10411236;28;20218;-76
2024/02/18 07:15:49;;;;;;;0.80;0.80;;;8.50;99.90;;;;;;10411072;28;20707;-76
2024/02/18 07:20:53;;;;;;;0.90;0.90;;;8.70;99.90;;;;;;10410777;28;20213;-76
2024/02/18 07:25:55;;;;;;;1.00;1.00;;;8.70;99.90;;;;;;10409806;28;20241;-76
2024/02/18 07:30:58;;;;;;;0.97;0.97;;;8.80;99.90;;;;;;10409004;28;20226;-76
2024/02/18 07:36:02;;;;;;;0.90;0.90;;;8.90;99.90;;;;;;10407484;28;20923;-77
2024/02/18 07:41:05;;;;;;;0.90;0.90;;;9.00;99.90;;;;;;10402876;28;20259;-78
2024/02/18 07:46:07;;;;;;;1.00;1.00;;;9.10;99.90;;;;;;10401210;28;20218;-77
2024/02/18 07:51:11;;;;;;;0.97;0.97;;;9.20;99.90;;;;;;10419846;28;20635;-77
2024/02/18 07:56:15;;;;;;;0.80;0.80;;;9.30;99.90;;;;;;10405251;28;20222;-79
2024/02/18 08:01:17;;;;;;;0.80;0.80;;;9.30;99.90;;;;;;10408404;28;20220;-79
2024/02/18 08:06:21;;;;;;;1.00;1.00;;;9.40;99.90;;;;;;10408187;28;20228;-78
2024/02/18 08:11:23;;;;;;;0.93;0.93;;;9.40;99.90;;;;;;10411069;28;20596;-78
2024/02/18 08:16:28;;;;;;;1.10;1.10;;;9.50;99.90;;;;;;10409315;28;20228;-78
2024/02/18 08:21:34;;;;;;;0.90;0.90;;;9.60;99.90;;;;;;10403341;28;20695;-83
2024/02/18 08:26:36;;;;;;;1.03;1.03;;;9.70;99.90;;;;;;10413719;28;20226;-79
2024/02/18 08:31:39;;;;;;;0.80;0.80;;;9.80;99.90;;;;;;10393051;28;21059;-77
2024/02/18 08:36:42;;;;;;;0.70;0.70;;;9.80;99.90;;;;;;10410754;28;20213;-78
2024/02/18 08:41:45;;;;;;;0.80;0.80;;;9.90;99.90;;;;;;10421465;28;20597;-79
2024/02/18 08:46:49;;;;;;;0.70;0.70;;;10.00;99.90;;;;;;10392056;28;20225;-78
2024/02/18 08:51:54;;;;;;;0.70;0.70;;;10.20;99.90;;;;;;10390755;28;20226;-79
2024/02/18 08:56:57;;;;;;;0.70;0.70;;;10.40;99.90;;;;;;10389393;28;20272;-78
2024/02/18 09:02:00;;;;;;;0.73;0.73;;;10.60;99.90;;;;;;10406733;28;20221;-82
2024/02/18 09:07:04;;;;;;;0.90;0.90;;;10.80;99.90;;;;;;10403864;28;20229;-78
2024/02/18 09:12:07;;;;;;;0.63;0.63;;;11.00;99.90;;;;;;10399282;28;20225;-79
2024/02/18 09:17:09;;;;;;;0.70;0.70;;;11.20;99.90;;;;;;10407829;28;20218;-78
2024/02/18 09:22:13;;;;;;;0.67;0.67;;;11.40;99.90;;;;;;10392669;28;20659;-79
2024/02/18 09:27:16;;;;;;;0.70;0.70;;;11.60;99.90;;;;;;10355877;28;1068403;-79
2024/02/18 09:32:21;;;;;;;0.60;0.60;;;11.80;99.90;;;;;;10432010;28;20530;-80
2024/02/18 09:37:25;;;;;;;0.70;0.70;;;11.90;99.90;;;;;;10412309;28;20222;-78
2024/02/18 09:42:30;;;;;;;0.60;0.60;;;12.10;99.90;;;;;;10406503;28;20248;-77
2024/02/18 09:47:33;;;;;;;0.70;0.70;;;12.30;99.90;;;;;;10410235;28;20222;-79
2024/02/18 09:52:40;;;;;;;0.70;0.70;;;12.50;99.90;;;;;;10415025;28;20222;-79
2024/02/18 09:57:42;;;;;;;0.60;0.60;;;12.70;99.90;;;;;;10420731;28;20217;-79
2024/02/18 10:02:46;;;;;;;0.63;0.63;;;12.90;99.90;;;;;;10413241;28;20264;-79
2024/02/18 10:08:01;;;;;;;0.60;0.60;;;13.10;99.90;;;;;;10418181;28;20703;-78
2024/02/18 10:13:05;;;;;;;0.50;0.50;;;13.30;99.90;;;;;;10413355;28;20374;-78
2024/02/18 10:18:09;;;;;;;0.60;0.60;;;13.40;99.90;;;;;;10409280;28;20292;-78
2024/02/18 10:23:13;;;;;;;0.60;0.60;;;13.50;99.90;;;;;;10411883;28;20206;-78
2024/02/18 10:28:19;;;;;;;0.50;0.50;;;13.50;99.90;;;;;;10411492;28;20236;-78
2024/02/18 10:33:22;;;;;;;0.50;0.50;;;13.60;99.90;;;;;;10411031;28;20214;-79
2024/02/18 10:38:26;;;;;;;0.60;0.60;;;13.70;99.90;;;;;;10418469;28;20699;-78
2024/02/18 10:43:32;;;;;;;0.60;0.60;;;13.80;99.90;;;;;;10420767;28;20206;-79
2024/02/18 10:48:36;;;;;;;0.70;0.70;;;13.90;99.90;;;;;;10411215;28;20248;-78
2024/02/18 10:53:46;;;;;;;0.60;0.60;;;14.00;99.90;;;;;;10424305;28;20217;-80
2024/02/18 10:58:58;;;;;;;0.60;0.60;;;14.00;99.90;;;;;;10409911;28;20268;-78
2024/02/18 11:04:03;;;;;;;0.60;0.60;;;14.00;99.90;;;;;;10415080;28;20704;-80
2024/02/18 11:09:09;;;;;;;0.70;0.70;;;14.00;99.90;;;;;;10433452;28;20252;-81
2024/02/18 11:14:13;;;;;;;0.70;0.70;;;14.10;99.90;;;;;;10418440;28;20237;-80
2024/02/18 11:19:15;;;;;;;0.60;0.60;;;14.20;99.90;;;;;;10418301;28;20268;-79
2024/02/18 11:24:23;;;;;;;0.70;0.70;;;14.20;99.40;;;;;;10416125;28;20214;-80
2024/02/18 11:29:25;;;;;;;0.70;0.70;;;14.30;99.60;;;;;;10424995;28;20190;-81
2024/02/18 11:34:28;;;;;;;0.50;0.50;;;14.30;99.40;;;;;;10422715;28;20214;-82
2024/02/18 11:39:31;;;;;;;0.60;0.60;;;14.40;99.10;;;;;;10423667;28;20256;-81
2024/02/18 11:44:43;;;;;;;0.60;0.60;;;14.50;99.10;;;;;;10427273;28;20266;-81
2024/02/18 11:49:45;;;;;;;0.60;0.60;;;14.50;97.90;;;;;;10423650;28;20193;-81
2024/02/18 11:54:50;;;;;;;0.60;0.60;;;14.50;97.50;;;;;;10419807;28;20217;-80
2024/02/18 11:59:52;;;;;;;0.50;0.50;;;14.50;97.20;;;;;;10404863;28;20829;-81
2024/02/18 12:04:54;;;;;;;0.60;0.60;;;14.50;96.20;;;;;;10421569;28;20226;-82
2024/02/18 12:09:58;;;;;;;0.50;0.50;;;14.50;96.90;;;;;;10416420;28;20201;-82
2024/02/18 12:15:01;;;;;;;0.50;0.50;;;14.50;97.70;;;;;;10421070;28;20233;-82
2024/02/18 12:20:06;;;;;;;0.70;0.70;;;14.50;97.80;;;;;;10413101;28;20194;-82
2024/02/18 12:25:10;;;;;;;0.50;0.50;;;14.60;97.00;;;;;;10415955;28;20647;-82
2024/02/18 12:30:14;;;;;;;0.60;0.60;;;14.60;97.20;;;;;;10417792;28;20600;-82
2024/02/18 12:35:16;;;;;;;0.50;0.50;;;14.60;96.40;;;;;;10419762;28;20247;-81
2024/02/18 12:40:20;;;;;;;0.50;0.50;;;14.60;96.70;;;;;;10420887;28;20193;-82
2024/02/18 12:45:23;;;;;;;0.60;0.60;;;14.70;96.20;;;;;;10421634;28;20217;-81
2024/02/18 12:50:26;;;;;;;0.57;0.40;;;14.60;96.60;;;;;;10427330;28;20248;-81
2024/02/18 12:55:34;;;;;;;0.50;0.50;;;14.70;96.00;;;;;;10427785;28;20304;-82
2024/02/18 13:00:39;;;;;;;0.50;0.50;;;14.60;95.90;;;;;;10422759;28;20209;-79
2024/02/18 13:05:41;;;;;;;0.60;0.60;;;14.60;96.40;;;;;;10420561;28;20217;-79
2024/02/18 13:10:45;;;;;;;0.50;0.50;;;14.70;96.60;;;;;;10417965;28;20236;-80
2024/02/18 13:15:51;;;;;;;0.60;0.60;;;14.70;97.10;;;;;;10418386;28;20228;-80
2024/02/18 13:20:53;;;;;;;0.50;0.50;;;14.60;97.10;;;;;;10417990;28;20202;-80
2024/02/18 13:25:57;;;;;;;0.60;0.60;;;14.60;96.80;;;;;;10423593;28;20252;-79
2024/02/18 13:30:59;;;;;;;0.50;0.50;;;14.60;96.90;;;;;;10424454;28;20190;-80
2024/02/18 13:36:02;;;;;;;0.40;0.40;;;14.60;97.30;;;;;;10419051;28;20253;-80
2024/02/18 13:41:06;;;;;;;0.40;0.40;;;14.70;97.90;;;;;;10423085;28;20293;-80
2024/02/18 13:46:08;;;;;;;0.40;0.40;;;14.60;97.60;;;;;;10425254;28;20229;-80
2024/02/18 13:51:10;;;;;;;0.40;0.40;;;14.60;97.90;;;;;;10407869;28;20271;-80
2024/02/18 13:56:14;;;;;;;0.50;0.50;;;14.60;97.60;;;;;;10424355;28;20225;-80
2024/02/18 14:01:16;;;;;;;0.40;0.40;;;14.70;97.20;;;;;;10425357;28;20625;-80
2024/02/18 14:06:19;;;;;;;0.70;0.70;;;14.60;97.80;;;;;;10426221;28;20214;-80
2024/02/18 14:11:22;;;;;;;0.50;0.50;;;14.60;98.40;;;;;;10421892;28;20205;-80
2024/02/18 14:16:26;;;;;;;0.50;0.50;;;14.50;98.40;;;;;;10424821;28;20729;-80
2024/02/18 14:21:28;;;;;;;0.40;0.40;;;14.50;98.20;;;;;;10421893;28;20201;-80
2024/02/18 14:26:32;;;;;;;0.60;0.60;;;14.50;97.90;;;;;;10420310;28;20711;-80
2024/02/18 14:31:34;;;;;;;0.50;0.50;;;14.40;98.20;;;;;;10419978;28;20583;-80
2024/02/18 14:36:36;;;;;;;0.67;0.67;;;14.40;98.50;;;;;;10421341;28;20232;-81
2024/02/18 14:41:40;;;;;;;0.60;0.60;;;14.40;98.80;;;;;;10420642;28;20206;-80
2024/02/18 14:46:43;;;;;;;0.60;0.60;;;14.40;98.90;;;;;;10425887;28;20213;-80
2024/02/18 14:51:45;;;;;;;0.50;0.50;;;14.40;99.00;;;;;;10425679;28;20198;-79
2024/02/18 14:56:49;;;;;;;0.60;0.60;;;14.30;99.10;;;;;;10420973;28;20222;-77
2024/02/18 15:01:51;;;;;;;0.70;0.70;;;14.20;99.30;;;;;;10417840;28;20221;-77
2024/02/18 15:06:54;;;;;;;0.70;0.70;;;14.10;99.30;;;;;;10404203;28;20250;-77
2024/02/18 15:11:57;;;;;;;0.60;0.60;;;13.90;99.40;;;;;;10411584;28;20205;-77
2024/02/18 15:17:00;;;;;;;0.70;0.70;;;13.80;99.60;;;;;;10412314;28;20713;-77
2024/02/18 15:22:02;;;;;;;0.70;0.70;;;13.80;99.80;;;;;;10412041;28;20206;-77
2024/02/18 15:27:07;;;;;;;1.00;1.00;;;13.70;99.90;;;;;;10408765;28;20222;-77
2024/02/18 15:32:10;;;;;;;0.90;0.90;;;13.70;99.90;;;;;;10412686;28;20202;-77
2024/02/18 15:37:12;;;;;;;0.70;0.70;;;13.60;99.90;;;;;;10408317;28;20234;-77
2024/02/18 15:42:16;;;;;;;0.70;0.70;;;13.60;99.90;;;;;;10409081;28;20205;-77
2024/02/18 15:47:18;;;;;;;0.80;0.80;;;13.50;99.90;;;;;;10408473;28;20225;-77
2024/02/18 15:52:20;;;;;;;0.60;0.60;;;13.50;99.90;;;;;;10408084;28;20619;-77
2024/02/18 15:57:24;;;;;;;0.80;0.80;;;13.40;99.90;;;;;;10407948;28;20643;-77
2024/02/18 16:02:27;;;;;;;0.80;0.80;;;13.40;99.90;;;;;;10408194;28;20206;-77
2024/02/18 16:07:29;;;;;;;0.73;0.73;;;13.30;99.90;;;;;;10403637;28;20733;-78
2024/02/18 16:12:35;;;;;;;0.80;0.80;;;13.20;99.90;;;;;;10405619;28;20217;-78
2024/02/18 16:17:37;;;;;;;0.70;0.70;;;13.20;99.90;;;;;;10408705;28;20606;-78
2024/02/18 16:22:40;;;;;;;0.90;0.90;;;13.10;99.90;;;;;;10411272;28;20194;-78
2024/02/18 16:27:44;;;;;;;0.63;0.63;;;13.00;99.90;;;;;;10408727;28;20225;-78
2024/02/18 16:32:46;;;;;;;0.57;0.57;;;13.00;99.90;;;;;;10410106;28;20244;-78
2024/02/18 16:37:48;;;;;;;0.70;0.70;;;12.90;99.90;;;;;;10408422;28;20233;-78
2024/02/18 16:42:52;;;;;;;0.80;0.80;;;12.90;99.90;;;;;;10410369;28;20263;-78
2024/02/18 16:47:55;;;;;;;0.70;0.70;;;12.80;99.90;;;;;;10404297;28;20230;-78
2024/02/18 16:52:58;;;;;;;0.60;0.60;;;12.80;99.90;;;;;;10411317;28;20742;-78
2024/02/18 16:58:01;;;;;;;0.70;0.70;;;12.80;99.90;;;;;;10410095;28;20226;-78
2024/02/18 17:03:05;;;;;;;0.70;0.70;;;12.80;99.90;;;;;;10417597;28;20205;-78
2024/02/18 17:08:08;;;;;;;0.73;0.73;;;12.80;99.90;;;;;;10406105;28;20222;-78
2024/02/18 17:13:12;;;;;;;0.60;0.60;;;12.80;99.90;;;;;;10415207;28;20512;-78
2024/02/18 17:18:15;;;;;;;0.70;0.70;;;12.80;99.90;;;;;;10405430;28;20711;-78
2024/02/18 17:23:17;;;;;;;0.60;0.60;;;12.80;99.90;;;;;;10401105;28;20208;-77
2024/02/18 17:28:21;;;;;;;0.70;0.70;;;12.70;99.90;;;;;;10408011;28;20226;-78
2024/02/18 17:33:23;;;;;;;0.80;0.80;;;12.70;99.90;;;;;;10414711;28;20225;-80
2024/02/18 17:38:25;;;;;;;0.60;0.60;;;12.70;99.90;;;;;;10425317;28;20217;-81
2024/02/18 17:43:29;;;;;;;0.70;0.70;;;12.70;99.90;;;;;;10426128;28;20726;-78
2024/02/18 17:48:31;;;;;;;0.70;0.70;;;12.70;99.90;;;;;;10406164;28;20218;-78
2024/02/18 17:53:34;;;;;;;0.70;0.70;;;12.60;99.90;;;;;;10412978;28;20626;-78
2024/02/18 17:58:38;;;;;;;0.70;0.70;;;12.60;99.90;;;;;;10412234;28;20220;-81
2024/02/18 18:03:40;;;;;;;0.70;0.70;;;12.50;99.90;;;;;;10432647;22;20241;-80
2024/02/18 18:08:43;;;;;;;0.80;0.80;;;12.50;99.90;;;;;;10410076;28;20212;-78
2024/02/18 18:13:47;;;;;;;0.60;0.60;;;12.50;99.90;;;;;;10404907;28;20232;-78
2024/02/18 18:18:49;;;;;;;0.60;0.60;;;12.50;99.90;;;;;;10374369;28;20207;-80
2024/02/18 18:23:52;;;;;;;0.60;0.60;;;12.50;99.90;;;;;;10371648;28;20225;-79
2024/02/18 18:28:55;;;;;;;0.67;0.67;;;12.50;99.90;;;;;;10367260;28;20206;-78
2024/02/18 18:33:58;;;;;;;0.60;0.60;;;12.60;99.90;;;;;;10361935;28;20666;-80
2024/02/18 18:39:00;;;;;;;0.60;0.60;;;12.60;99.80;;;;;;10360219;28;20214;-79
2024/02/18 18:44:04;;;;;;;0.60;0.60;;;12.60;99.60;;;;;;10378578;28;20691;-81
2024/02/18 18:49:08;;;;;;;0.60;0.60;;;12.60;99.20;;;;;;10379107;28;20202;-78
2024/02/18 18:54:11;;;;;;;0.70;0.70;;;12.60;99.40;;;;;;10359551;28;20233;-78
2024/02/18 18:59:14;;;;;;;0.70;0.70;;;12.60;99.40;;;;;;10369984;28;20202;-78
2024/02/18 19:04:17;;;;;;;0.60;0.60;;;12.70;99.50;;;;;;10378506;28;20284;-79
2024/02/18 19:09:19;;;;;;;0.60;0.60;;;12.70;99.70;;;;;;10382329;28;20260;-78
2024/02/18 19:14:24;;;;;;;0.70;0.70;;;12.60;99.70;;;;;;10368056;28;20686;-80
2024/02/18 19:19:26;;;;;;;0.50;0.50;;;12.60;99.90;;;;;;10373125;28;20240;-78
2024/02/18 19:24:29;;;;;;;0.60;0.60;;;12.50;99.90;;;;;;10388480;28;20215;-82
2024/02/18 19:29:33;;;;;;;0.80;0.80;;;12.50;99.90;;;;;;10361346;28;20614;-80
2024/02/18 19:34:35;;;;;;;0.90;0.90;;;12.30;99.90;;;;;;10355022;28;20274;-79
2024/02/18 19:39:38;;;;;;;1.10;1.10;;;12.10;99.90;;;;;;10368204;28;20202;-79
2024/02/18 19:44:42;;;;;;;1.30;1.30;;;11.90;99.90;;;;;;10367779;28;20226;-80
2024/02/18 19:49:45;;;;;;;1.40;1.40;;;11.70;99.90;;;;;;10365860;28;20936;-79
2024/02/18 19:54:47;;;;;;;1.47;1.47;;;11.60;99.90;;;;;;10364839;28;20233;-80
2024/02/18 19:59:51;;;;;;;1.40;1.40;;;11.40;99.90;;;;;;10366324;28;20706;-80
2024/02/18 20:04:53;;;;;;;1.27;1.27;;;11.40;99.90;;;;;;10360694;28;20218;-79
2024/02/18 20:09:56;;;;;;;1.40;1.40;;;11.30;99.90;;;;;;10368675;28;20205;-81
2024/02/18 20:15:00;;;;;;;1.30;1.30;;;11.30;99.90;;;;;;10368134;28;20238;-80
2024/02/18 20:20:06;;;;;;;1.30;1.30;;;11.20;99.90;;;;;;10377452;28;20240;-78
2024/02/18 20:25:09;;;;;;;1.57;1.57;;;11.20;99.90;;;;;;10376780;28;20248;-78
2024/02/18 20:30:14;;;;;;;2.17;2.17;;;11.10;99.90;;;;;;10348465;28;20235;-80
2024/02/18 20:35:16;;;;;;;2.37;2.37;;;11.00;99.90;;;;;;10364441;28;20226;-79
2024/02/18 20:40:20;;;;;;;2.17;2.17;;;10.90;99.90;;;;;;10366333;28;20269;-79
2024/02/18 20:45:25;;;;;;;2.40;2.40;;;10.90;99.90;;;;;;10358163;28;20218;-80
2024/02/18 20:50:28;;;;;;;3.10;3.10;;;10.90;99.90;;;;;;10368944;28;20202;-81
2024/02/18 20:55:30;;;;;;;3.00;3.00;;;10.90;99.90;;;;;;10362971;28;20653;-81
2024/02/18 21:00:34;;;;;;;2.60;2.60;;;10.90;99.90;;;;;;10366154;28;20198;-79
2024/02/18 21:05:37;;;;;;;2.83;2.83;;;10.80;99.90;;;;;;10364195;28;20615;-79
2024/02/18 21:10:39;;;;;;;3.10;3.10;;;10.80;99.90;;;;;;10367319;28;20218;-79
2024/02/18 21:15:43;;;;;;;2.70;2.70;;;10.70;99.90;;;;;;10357947;28;20320;-79
2024/02/18 21:20:46;;;;;;;2.77;2.77;;;10.70;99.90;;;;;;10377952;28;20222;-76
2024/02/18 21:25:48;;;;;;;3.17;3.17;;;10.60;99.90;;;;;;10352436;28;20695;-80
2024/02/18 21:30:52;;;;;;;2.37;2.37;;;10.60;99.90;;;;;;10373344;28;20716;-78
2024/02/18 21:35:56;;;;;;;2.80;2.80;;;10.60;99.90;;;;;;10353560;28;20328;-78
2024/02/18 21:40:58;;;;;;;2.67;2.67;;;10.60;99.90;;;;;;10363060;28;20238;-80
2024/02/18 21:46:02;;;;;;;3.20;3.20;;;10.60;99.90;;;;;;10367662;28;20214;-81
2024/02/18 21:51:05;;;;;;;3.13;3.13;;;10.50;99.90;;;;;;10366315;28;20237;-78
2024/02/18 21:56:08;;;;;;;3.20;3.20;;;10.40;99.90;;;;;;10379229;28;20230;-77
2024/02/18 22:01:13;;;;;;;3.53;3.53;;;10.40;99.90;;;;;;10371173;28;20280;-78
2024/02/18 22:06:15;;;;;;;2.70;2.70;;;10.30;99.90;;;;;;10395283;28;20195;-82
2024/02/18 22:11:18;;;;;;;3.50;3.50;;;10.40;99.90;;;;;;10385596;28;20225;-80
2024/02/18 22:16:23;;;;;;;3.43;3.43;;;10.40;99.90;;;;;;10386091;28;20321;-78
2024/02/18 22:21:25;;;;;;;3.20;3.20;;;10.40;99.90;;;;;;10376115;28;20226;-79
2024/02/18 22:26:28;;;;;;;4.50;4.50;;;10.40;99.90;;;;;;10377151;28;20202;-79
2024/02/18 22:31:32;;;;;;;4.07;4.07;;;10.30;99.90;;;;;;10380259;28;20230;-78
2024/02/18 22:36:35;;;;;;;4.47;4.47;;;10.30;99.90;;;;;;10370736;28;20223;-78
2024/02/18 22:41:37;;;;;;;4.20;4.20;;;10.30;99.90;;;;;;10380061;28;20296;-80
2024/02/18 22:46:41;;;;;;;4.57;4.57;;;10.30;99.90;;;;;;10371116;28;20202;-77
2024/02/18 22:51:50;;;;;;;4.43;4.43;;;10.30;99.90;;;;;;10375844;28;20217;-80
2024/02/18 22:56:53;;;;;;;4.30;4.30;;;10.30;99.90;;;;;;10381976;28;20280;-77
2024/02/18 23:01:57;;;;;;;4.73;4.73;;;10.30;99.90;;;;;;10371081;28;20229;-81
2024/02/18 23:07:03;;;;;;;3.90;3.90;;;10.30;99.90;;;;;;10369545;28;20202;-78
2024/02/18 23:12:08;;;;;;;3.97;3.97;;;10.30;99.90;;;;;;10380003;28;20226;-80
2024/02/18 23:17:12;;;;;;;4.40;4.40;;;10.30;99.90;;;;;;10393367;28;20248;-77
2024/02/18 23:22:14;;;;;;;3.90;3.90;;;10.30;99.90;;;;;;10369341;28;20222;-77
2024/02/18 23:27:17;;;;;;;4.03;4.03;;;10.30;99.90;;;;;;10392785;28;20210;-78
2024/02/18 23:32:21;;;;;;;4.30;4.30;;;10.40;99.90;;;;;;10386853;28;20572;-78
2024/02/18 23:37:23;;;;;;;4.10;4.10;;;10.40;99.90;;;;;;10390952;28;20328;-78
2024/02/18 23:42:26;;;;;;;4.10;4.10;;;10.30;99.90;;;;;;10394446;28;20221;-77
2024/02/18 23:47:30;;;;;;;3.87;3.87;;;10.30;99.90;;;;;;10386791;28;20202;-79
2024/02/18 23:52:32;;;;;;;3.40;3.40;;;10.40;99.90;;;;;;10354088;28;20210;-80
2024/02/18 23:57:35;;;;;;;4.00;4.00;;;10.40;99.90;;;;;;10370650;28;20288;-79
